sensor_id;sensor_type;location;lat;lon;timestamp;pressure;altitude;pressure_sealevel;temperature;humidity
32873;BME280;19224;52.462;16.898;2022-10-16T00:02:23;100089.36;;;14.30;100.00
32873;BME280;19224;52.462;16.898;2022-10-16T00:04:54;100086.73;;;14.28;100.00
32873;BME280;19224;52.462;16.898;2022-10-16T00:07:24;100082.86;;;14.32;100.00
32873;BME280;19224;52.462;16.898;2022-10-16T00:09:54;100077.27;;;14.35;100.00
32873;BME280;19224;52.462;16.898;2022-10-16T00:12:27;100066.23;;;14.38;100.00
32873;BME280;19224;52.462;16.898;2022-10-16T00:14:57;100068.94;;;14.38;100.00
32873;BME280;19224;52.462;16.898;2022-10-16T00:17:27;100071.56;;;14.40;100.00
32873;BME280;19224;52.462;16.898;2022-10-16T00:19:57;100073.98;;;14.44;100.00
32873;BME280;19224;52.462;16.898;2022-10-16T00:22:27;100079.66;;;14.46;100.00
32873;BME280;19224;52.462;16.898;2022-10-16T00:24:57;100068.23;;;14.48;100.00
32873;BME280;19224;52.462;16.898;2022-10-16T00:27:28;100078.22;;;14.48;100.00
32873;BME280;19224;52.462;16.898;2022-10-16T00:30:00;100081.11;;;14.52;100.00
32873;BME280;19224;52.462;16.898;2022-10-16T00:32:32;100079.55;;;14.55;100.00
32873;BME280;19224;52.462;16.898;2022-10-16T00:35:08;100082.17;;;14.56;100.00
32873;BME280;19224;52.462;16.898;2022-10-16T00:37:35;100091.06;;;14.58;100.00
32873;BME280;19224;52.462;16.898;2022-10-16T00:40:08;100092.72;;;14.61;100.00
32873;BME280;19224;52.462;16.898;2022-10-16T00:42:40;100092.25;;;14.61;100.00
32873;BME280;19224;52.462;16.898;2022-10-16T00:45:10;100094.45;;;14.62;100.00
32873;BME280;19224;52.462;16.898;2022-10-16T00:47:44;100091.75;;;14.62;100.00
32873;BME280;19224;52.462;16.898;2022-10-16T00:50:32;100091.16;;;14.64;100.00
32873;BME280;19224;52.462;16.898;2022-10-16T00:53:04;100081.50;;;14.67;100.00
32873;BME280;19224;52.462;16.898;2022-10-16T00:55:34;100082.94;;;14.65;100.00
32873;BME280;19224;52.462;16.898;2022-10-16T00:58:08;100084.30;;;14.65;100.00
32873;BME280;19224;52.462;16.898;2022-10-16T01:00:39;100086.92;;;14.67;100.00
32873;BME280;19224;52.462;16.898;2022-10-16T01:03:35;100088.66;;;14.68;100.00
32873;BME280;19224;52.462;16.898;2022-10-16T01:06:24;100096.20;;;14.70;100.00
32873;BME280;19224;52.462;16.898;2022-10-16T01:09:17;100092.98;;;14.70;100.00
32873;BME280;19224;52.462;16.898;2022-10-16T01:17:35;100092.61;;;14.76;100.00
32873;BME280;19224;52.462;16.898;2022-10-16T01:20:29;100103.36;;;14.78;100.00
32873;BME280;19224;52.462;16.898;2022-10-16T01:28:19;100094.05;;;14.82;100.00
32873;BME280;19224;52.462;16.898;2022-10-16T01:30:53;100089.39;;;14.84;100.00
32873;BME280;19224;52.462;16.898;2022-10-16T01:33:38;100096.76;;;14.82;100.00
32873;BME280;19224;52.462;16.898;2022-10-16T01:38:51;100098.11;;;14.89;100.00
32873;BME280;19224;52.462;16.898;2022-10-16T01:41:34;100099.84;;;14.90;100.00
32873;BME280;19224;52.462;16.898;2022-10-16T01:47:10;100107.95;;;14.97;100.00
32873;BME280;19224;52.462;16.898;2022-10-16T01:49:43;100104.39;;;14.89;100.00
32873;BME280;19224;52.462;16.898;2022-10-16T01:52:19;100107.39;;;14.92;100.00
32873;BME280;19224;52.462;16.898;2022-10-16T01:54:54;100113.58;;;14.94;100.00
32873;BME280;19224;52.462;16.898;2022-10-16T01:57:27;100118.63;;;14.93;100.00
32873;BME280;19224;52.462;16.898;2022-10-16T02:00:03;100113.58;;;15.01;100.00
32873;BME280;19224;52.462;16.898;2022-10-16T02:02:40;100116.77;;;15.00;100.00
32873;BME280;19224;52.462;16.898;2022-10-16T02:05:41;100107.17;;;15.02;100.00
32873;BME280;19224;52.462;16.898;2022-10-16T02:08:01;100115.11;;;15.05;100.00
32873;BME280;19224;52.462;16.898;2022-10-16T02:10:32;100100.78;;;15.03;100.00
32873;BME280;19224;52.462;16.898;2022-10-16T02:13:17;100107.86;;;15.05;100.00
32873;BME280;19224;52.462;16.898;2022-10-16T02:15:47;100109.47;;;15.08;100.00
32873;BME280;19224;52.462;16.898;2022-10-16T02:18:19;100106.76;;;15.08;100.00
32873;BME280;19224;52.462;16.898;2022-10-16T02:27:17;100115.27;;;15.16;100.00
32873;BME280;19224;52.462;16.898;2022-10-16T02:29:52;100115.27;;;15.16;100.00
32873;BME280;19224;52.462;16.898;2022-10-16T02:32:22;100114.67;;;15.18;100.00
32873;BME280;19224;52.462;16.898;2022-10-16T02:34:54;100113.52;;;15.22;100.00
32873;BME280;19224;52.462;16.898;2022-10-16T02:37:26;100109.45;;;15.22;100.00
32873;BME280;19224;52.462;16.898;2022-10-16T02:39:58;100105.26;;;15.23;100.00
32873;BME280;19224;52.462;16.898;2022-10-16T02:42:42;100109.91;;;15.28;100.00
32873;BME280;19224;52.462;16.898;2022-10-16T02:45:11;100114.16;;;15.25;100.00
32873;BME280;19224;52.462;16.898;2022-10-16T02:47:45;100109.33;;;15.23;100.00
32873;BME280;19224;52.462;16.898;2022-10-16T02:50:21;100111.19;;;15.23;100.00
32873;BME280;19224;52.462;16.898;2022-10-16T02:52:49;100112.04;;;15.23;100.00
32873;BME280;19224;52.462;16.898;2022-10-16T02:55:19;100114.87;;;15.22;100.00
32873;BME280;19224;52.462;16.898;2022-10-16T02:57:49;100112.55;;;15.23;100.00
32873;BME280;19224;52.462;16.898;2022-10-16T03:00:19;100115.26;;;15.23;100.00
32873;BME280;19224;52.462;16.898;2022-10-16T03:02:50;100124.25;;;15.23;100.00
32873;BME280;19224;52.462;16.898;2022-10-16T03:05:21;100114.66;;;15.25;100.00
32873;BME280;19224;52.462;16.898;2022-10-16T03:07:51;100113.91;;;15.23;100.00
32873;BME280;19224;52.462;16.898;2022-10-16T03:10:21;100121.45;;;15.25;100.00
32873;BME280;19224;52.462;16.898;2022-10-16T03:12:53;100117.00;;;15.24;100.00
32873;BME280;19224;52.462;16.898;2022-10-16T03:15:24;100117.38;;;15.25;100.00
32873;BME280;19224;52.462;16.898;2022-10-16T03:17:58;100122.30;;;15.25;100.00
32873;BME280;19224;52.462;16.898;2022-10-16T03:20:28;100123.56;;;15.27;100.00
32873;BME280;19224;52.462;16.898;2022-10-16T03:22:58;100123.86;;;15.29;100.00
32873;BME280;19224;52.462;16.898;2022-10-16T03:25:31;100123.66;;;15.25;100.00
32873;BME280;19224;52.462;16.898;2022-10-16T03:28:01;100126.28;;;15.27;100.00
32873;BME280;19224;52.462;16.898;2022-10-16T03:30:32;100120.77;;;15.28;100.00
32873;BME280;19224;52.462;16.898;2022-10-16T03:33:02;100127.05;;;15.29;100.00
32873;BME280;19224;52.462;16.898;2022-10-16T03:35:32;100134.42;;;15.27;100.00
32873;BME280;19224;52.462;16.898;2022-10-16T03:38:05;100141.03;;;15.30;100.00
32873;BME280;19224;52.462;16.898;2022-10-16T03:40:35;100137.42;;;15.29;100.00
32873;BME280;19224;52.462;16.898;2022-10-16T03:43:05;100138.02;;;15.27;100.00
32873;BME280;19224;52.462;16.898;2022-10-16T03:45:35;100133.45;;;15.28;100.00
32873;BME280;19224;52.462;16.898;2022-10-16T03:48:05;100131.11;;;15.29;100.00
32873;BME280;19224;52.462;16.898;2022-10-16T03:50:43;100140.14;;;15.29;100.00
32873;BME280;19224;52.462;16.898;2022-10-16T03:53:14;100146.27;;;15.33;100.00
32873;BME280;19224;52.462;16.898;2022-10-16T03:55:44;100153.44;;;15.34;100.00
32873;BME280;19224;52.462;16.898;2022-10-16T03:58:15;100154.30;;;15.34;100.00
32873;BME280;19224;52.462;16.898;2022-10-16T04:00:47;100146.66;;;15.34;100.00
32873;BME280;19224;52.462;16.898;2022-10-16T04:03:18;100157.77;;;15.36;100.00
32873;BME280;19224;52.462;16.898;2022-10-16T04:05:49;100160.02;;;15.37;100.00
32873;BME280;19224;52.462;16.898;2022-10-16T04:08:23;100155.34;;;15.39;100.00
32873;BME280;19224;52.462;16.898;2022-10-16T04:10:57;100163.88;;;15.40;100.00
32873;BME280;19224;52.462;16.898;2022-10-16T04:13:27;100156.61;;;15.40;100.00
32873;BME280;19224;52.462;16.898;2022-10-16T04:15:57;100163.28;;;15.42;100.00
32873;BME280;19224;52.462;16.898;2022-10-16T04:18:29;100158.23;;;15.43;100.00
32873;BME280;19224;52.462;16.898;2022-10-16T04:21:05;100158.83;;;15.41;100.00
32873;BME280;19224;52.462;16.898;2022-10-16T04:23:43;100163.28;;;15.42;100.00
32873;BME280;19224;52.462;16.898;2022-10-16T04:26:13;100174.05;;;15.43;100.00
32873;BME280;19224;52.462;16.898;2022-10-16T04:28:43;100171.71;;;15.44;100.00
32873;BME280;19224;52.462;16.898;2022-10-16T04:31:13;100172.98;;;15.46;100.00
32873;BME280;19224;52.462;16.898;2022-10-16T04:33:45;100181.12;;;15.46;100.00
32873;BME280;19224;52.462;16.898;2022-10-16T04:36:16;100181.42;;;15.41;100.00
32873;BME280;19224;52.462;16.898;2022-10-16T04:38:47;100187.53;;;15.45;100.00
32873;BME280;19224;52.462;16.898;2022-10-16T04:41:22;100193.90;;;15.44;100.00
32873;BME280;19224;52.462;16.898;2022-10-16T04:43:49;100193.52;;;15.43;100.00
32873;BME280;19224;52.462;16.898;2022-10-16T04:46:19;100199.15;;;15.47;100.00
32873;BME280;19224;52.462;16.898;2022-10-16T04:48:49;100190.24;;;15.45;100.00
32873;BME280;19224;52.462;16.898;2022-10-16T04:51:20;100196.44;;;15.47;100.00
32873;BME280;19224;52.462;16.898;2022-10-16T04:53:59;100197.80;;;15.47;100.00
32873;BME280;19224;52.462;16.898;2022-10-16T04:56:30;100197.20;;;15.49;100.00
32873;BME280;19224;52.462;16.898;2022-10-16T04:59:04;100198.94;;;15.50;100.00
32873;BME280;19224;52.462;16.898;2022-10-16T05:01:34;100199.83;;;15.50;100.00
32873;BME280;19224;52.462;16.898;2022-10-16T05:04:04;100204.37;;;15.50;100.00
32873;BME280;19224;52.462;16.898;2022-10-16T05:06:34;100204.16;;;15.53;100.00
32873;BME280;19224;52.462;16.898;2022-10-16T05:09:05;100200.67;;;15.51;100.00
32873;BME280;19224;52.462;16.898;2022-10-16T05:11:36;100196.02;;;15.53;100.00
32873;BME280;19224;52.462;16.898;2022-10-16T05:14:09;100185.66;;;15.52;100.00
32873;BME280;19224;52.462;16.898;2022-10-16T05:16:41;100193.03;;;15.50;100.00
32873;BME280;19224;52.462;16.898;2022-10-16T05:19:11;100202.63;;;15.49;100.00
32873;BME280;19224;52.462;16.898;2022-10-16T05:21:41;100196.05;;;15.46;100.00
32873;BME280;19224;52.462;16.898;2022-10-16T05:24:13;100207.67;;;15.48;100.00
32873;BME280;19224;52.462;16.898;2022-10-16T05:26:43;100214.25;;;15.51;100.00
32873;BME280;19224;52.462;16.898;2022-10-16T05:29:13;100212.42;;;15.51;100.00
32873;BME280;19224;52.462;16.898;2022-10-16T05:31:43;100219.09;;;15.53;100.00
32873;BME280;19224;52.462;16.898;2022-10-16T05:34:13;100214.33;;;15.56;100.00
32873;BME280;19224;52.462;16.898;2022-10-16T05:36:46;100209.78;;;15.57;100.00
32873;BME280;19224;52.462;16.898;2022-10-16T05:39:17;100212.12;;;15.56;100.00
32873;BME280;19224;52.462;16.898;2022-10-16T05:41:50;100214.63;;;15.59;100.00
32873;BME280;19224;52.462;16.898;2022-10-16T05:44:21;100213.27;;;15.59;100.00
32873;BME280;19224;52.462;16.898;2022-10-16T05:46:53;100213.36;;;15.57;100.00
32873;BME280;19224;52.462;16.898;2022-10-16T05:49:23;100219.29;;;15.57;100.00
32873;BME280;19224;52.462;16.898;2022-10-16T05:51:53;100208.98;;;15.55;100.00
32873;BME280;19224;52.462;16.898;2022-10-16T05:54:25;100216.75;;;15.54;100.00
32873;BME280;19224;52.462;16.898;2022-10-16T05:56:55;100216.58;;;15.57;100.00
32873;BME280;19224;52.462;16.898;2022-10-16T05:59:25;100210.47;;;15.53;100.00
32873;BME280;19224;52.462;16.898;2022-10-16T06:01:55;100223.07;;;15.54;100.00
32873;BME280;19224;52.462;16.898;2022-10-16T06:04:35;100226.63;;;15.55;100.00
32873;BME280;19224;52.462;16.898;2022-10-16T06:07:06;100223.83;;;15.56;100.00
32873;BME280;19224;52.462;16.898;2022-10-16T06:09:37;100226.55;;;15.56;100.00
32873;BME280;19224;52.462;16.898;2022-10-16T06:12:07;100223.74;;;15.58;100.00
32873;BME280;19224;52.462;16.898;2022-10-16T06:14:37;100219.08;;;15.60;100.00
32873;BME280;19224;52.462;16.898;2022-10-16T06:17:14;100224.13;;;15.59;100.00
32873;BME280;19224;52.462;16.898;2022-10-16T06:19:44;100234.48;;;15.59;100.00
32873;BME280;19224;52.462;16.898;2022-10-16T06:22:14;100236.64;;;15.61;100.00
32873;BME280;19224;52.462;16.898;2022-10-16T06:24:45;100236.05;;;15.63;100.00
32873;BME280;19224;52.462;16.898;2022-10-16T06:27:19;100227.30;;;15.65;100.00
32873;BME280;19224;52.462;16.898;2022-10-16T06:29:50;100237.48;;;15.69;100.00
32873;BME280;19224;52.462;16.898;2022-10-16T06:32:20;100247.36;;;15.70;100.00
32873;BME280;19224;52.462;16.898;2022-10-16T06:34:55;100247.45;;;15.68;100.00
32873;BME280;19224;52.462;16.898;2022-10-16T06:37:22;100248.04;;;15.73;100.00
32873;BME280;19224;52.462;16.898;2022-10-16T06:39:52;100249.27;;;15.75;100.00
32873;BME280;19224;52.462;16.898;2022-10-16T06:42:23;100246.09;;;15.75;100.00
32873;BME280;19224;52.462;16.898;2022-10-16T06:44:56;100257.71;;;15.77;100.00
32873;BME280;19224;52.462;16.898;2022-10-16T06:47:26;100260.22;;;15.80;100.00
32873;BME280;19224;52.462;16.898;2022-10-16T06:49:58;100278.33;;;15.87;100.00
32873;BME280;19224;52.462;16.898;2022-10-16T06:52:29;100286.16;;;15.98;100.00
32873;BME280;19224;52.462;16.898;2022-10-16T06:55:00;100284.45;;;16.10;100.00
32873;BME280;19224;52.462;16.898;2022-10-16T06:57:31;100290.03;;;16.21;100.00
32873;BME280;19224;52.462;16.898;2022-10-16T07:00:02;100299.31;;;16.31;100.00
32873;BME280;19224;52.462;16.898;2022-10-16T07:02:32;100301.83;;;16.41;100.00
32873;BME280;19224;52.462;16.898;2022-10-16T07:05:02;100312.39;;;16.45;100.00
32873;BME280;19224;52.462;16.898;2022-10-16T07:07:33;100302.65;;;16.48;100.00
32873;BME280;19224;52.462;16.898;2022-10-16T07:10:04;100305.72;;;16.56;100.00
32873;BME280;19224;52.462;16.898;2022-10-16T07:12:35;100310.75;;;16.62;100.00
32873;BME280;19224;52.462;16.898;2022-10-16T07:15:09;100311.23;;;16.62;100.00
32873;BME280;19224;52.462;16.898;2022-10-16T07:17:39;100314.23;;;16.64;100.00
32873;BME280;19224;52.462;16.898;2022-10-16T07:20:10;100317.94;;;16.63;100.00
32873;BME280;19224;52.462;16.898;2022-10-16T07:22:47;100317.05;;;16.63;100.00
32873;BME280;19224;52.462;16.898;2022-10-16T07:25:18;100316.27;;;16.68;100.00
32873;BME280;19224;52.462;16.898;2022-10-16T07:27:48;100315.44;;;16.73;100.00
32873;BME280;19224;52.462;16.898;2022-10-16T07:30:18;100318.87;;;16.82;100.00
32873;BME280;19224;52.462;16.898;2022-10-16T07:32:48;100304.58;;;16.85;100.00
32873;BME280;19224;52.462;16.898;2022-10-16T07:35:18;100300.33;;;16.93;100.00
32873;BME280;19224;52.462;16.898;2022-10-16T07:37:50;100302.73;;;16.98;100.00
32873;BME280;19224;52.462;16.898;2022-10-16T07:40:23;100307.72;;;17.04;100.00
32873;BME280;19224;52.462;16.898;2022-10-16T07:42:55;100311.01;;;17.09;100.00
32873;BME280;19224;52.462;16.898;2022-10-16T07:45:31;100299.42;;;17.12;100.00
32873;BME280;19224;52.462;16.898;2022-10-16T07:47:57;100301.77;;;17.11;100.00
32873;BME280;19224;52.462;16.898;2022-10-16T07:50:27;100297.45;;;17.14;100.00
32873;BME280;19224;52.462;16.898;2022-10-16T07:52:58;100310.41;;;17.23;100.00
32873;BME280;19224;52.462;16.898;2022-10-16T07:55:28;100314.41;;;17.30;100.00
32873;BME280;19224;52.462;16.898;2022-10-16T07:57:58;100330.64;;;17.39;100.00
32873;BME280;19224;52.462;16.898;2022-10-16T08:00:29;100335.20;;;17.38;100.00
32873;BME280;19224;52.462;16.898;2022-10-16T08:03:00;100336.61;;;17.44;100.00
32873;BME280;19224;52.462;16.898;2022-10-16T08:05:32;100339.33;;;17.44;100.00
32873;BME280;19224;52.462;16.898;2022-10-16T08:08:03;100354.74;;;17.50;100.00
32873;BME280;19224;52.462;16.898;2022-10-16T08:10:36;100351.78;;;17.53;100.00
32873;BME280;19224;52.462;16.898;2022-10-16T08:13:06;100345.16;;;17.57;100.00
32873;BME280;19224;52.462;16.898;2022-10-16T08:15:39;100348.34;;;17.69;100.00
32873;BME280;19224;52.462;16.898;2022-10-16T08:18:13;100350.73;;;17.74;100.00
32873;BME280;19224;52.462;16.898;2022-10-16T08:20:47;100347.50;;;17.74;100.00
32873;BME280;19224;52.462;16.898;2022-10-16T08:23:17;100346.70;;;17.79;100.00
32873;BME280;19224;52.462;16.898;2022-10-16T08:25:47;100350.51;;;17.77;100.00
32873;BME280;19224;52.462;16.898;2022-10-16T08:28:20;100351.83;;;17.71;100.00
32873;BME280;19224;52.462;16.898;2022-10-16T08:30:51;100350.89;;;17.65;100.00
32873;BME280;19224;52.462;16.898;2022-10-16T08:33:21;100353.80;;;17.57;100.00
32873;BME280;19224;52.462;16.898;2022-10-16T08:35:53;100358.06;;;17.61;100.00
32873;BME280;19224;52.462;16.898;2022-10-16T08:38:23;100357.51;;;17.68;100.00
32873;BME280;19224;52.462;16.898;2022-10-16T08:41:17;100367.94;;;17.74;100.00
32873;BME280;19224;52.462;16.898;2022-10-16T08:47:19;100373.05;;;17.91;100.00
32873;BME280;19224;52.462;16.898;2022-10-16T08:49:59;100362.32;;;18.01;100.00
32873;BME280;19224;52.462;16.898;2022-10-16T08:52:33;100367.81;;;18.24;100.00
32873;BME280;19224;52.462;16.898;2022-10-16T08:55:05;100375.03;;;18.49;100.00
32873;BME280;19224;52.462;16.898;2022-10-16T08:57:35;100372.87;;;18.59;100.00
32873;BME280;19224;52.462;16.898;2022-10-16T09:00:13;100375.97;;;18.60;100.00
32873;BME280;19224;52.462;16.898;2022-10-16T09:05:58;100385.59;;;18.53;100.00
32873;BME280;19224;52.462;16.898;2022-10-16T09:11:52;100381.77;;;18.56;100.00
32873;BME280;19224;52.462;16.898;2022-10-16T09:17:29;100388.49;;;18.57;100.00
32873;BME280;19224;52.462;16.898;2022-10-16T09:25:59;100387.02;;;18.64;100.00
32873;BME280;19224;52.462;16.898;2022-10-16T09:28:40;100385.82;;;18.68;100.00
32873;BME280;19224;52.462;16.898;2022-10-16T09:31:20;100390.28;;;18.69;100.00
32873;BME280;19224;52.462;16.898;2022-10-16T09:33:57;100397.19;;;18.62;100.00
32873;BME280;19224;52.462;16.898;2022-10-16T09:36:27;100394.62;;;18.66;100.00
32873;BME280;19224;52.462;16.898;2022-10-16T09:39:11;100394.41;;;18.75;100.00
32873;BME280;19224;52.462;16.898;2022-10-16T09:41:44;100391.92;;;18.72;100.00
32873;BME280;19224;52.462;16.898;2022-10-16T09:47:26;100394.35;;;18.98;100.00
32873;BME280;19224;52.462;16.898;2022-10-16T09:50:19;100400.45;;;19.25;100.00
32873;BME280;19224;52.462;16.898;2022-10-16T09:52:38;100398.00;;;19.39;100.00
32873;BME280;19224;52.462;16.898;2022-10-16T09:55:17;100401.50;;;19.57;100.00
32873;BME280;19224;52.462;16.898;2022-10-16T09:57:54;100409.20;;;19.74;100.00
32873;BME280;19224;52.462;16.898;2022-10-16T10:00:25;100408.84;;;19.89;100.00
32873;BME280;19224;52.462;16.898;2022-10-16T10:02:55;100418.41;;;19.89;100.00
32873;BME280;19224;52.462;16.898;2022-10-16T10:05:31;100404.00;;;19.87;100.00
32873;BME280;19224;52.462;16.898;2022-10-16T10:08:03;100403.37;;;19.95;100.00
32873;BME280;19224;52.462;16.898;2022-10-16T10:10:41;100404.13;;;20.08;100.00
32873;BME280;19224;52.462;16.898;2022-10-16T10:13:20;100400.64;;;20.17;100.00
32873;BME280;19224;52.462;16.898;2022-10-16T10:15:51;100391.95;;;20.23;100.00
32873;BME280;19224;52.462;16.898;2022-10-16T10:18:23;100404.48;;;20.25;100.00
32873;BME280;19224;52.462;16.898;2022-10-16T10:21:02;100409.73;;;20.28;100.00
32873;BME280;19224;52.462;16.898;2022-10-16T10:23:34;100414.30;;;20.33;100.00
32873;BME280;19224;52.462;16.898;2022-10-16T10:26:20;100413.92;;;20.38;100.00
32873;BME280;19224;52.462;16.898;2022-10-16T10:29:17;100416.04;;;20.34;100.00
32873;BME280;19224;52.462;16.898;2022-10-16T10:32:06;100413.31;;;20.29;100.00
32873;BME280;19224;52.462;16.898;2022-10-16T10:34:50;100407.00;;;20.23;100.00
32873;BME280;19224;52.462;16.898;2022-10-16T10:40:51;100406.37;;;20.25;100.00
32873;BME280;19224;52.462;16.898;2022-10-16T10:46:41;100396.87;;;20.40;100.00
32873;BME280;19224;52.462;16.898;2022-10-16T10:55:54;100411.55;;;20.39;100.00
32873;BME280;19224;52.462;16.898;2022-10-16T10:58:47;100414.53;;;20.47;100.00
32873;BME280;19224;52.462;16.898;2022-10-16T11:01:18;100418.95;;;20.70;100.00
32873;BME280;19224;52.462;16.898;2022-10-16T11:04:19;100407.69;;;20.84;100.00
32873;BME280;19224;52.462;16.898;2022-10-16T11:07:05;100400.37;;;20.90;100.00
32873;BME280;19224;52.462;16.898;2022-10-16T11:09:41;100402.84;;;20.82;100.00
32873;BME280;19224;52.462;16.898;2022-10-16T11:12:26;100404.48;;;20.79;100.00
32873;BME280;19224;52.462;16.898;2022-10-16T11:15:17;100401.73;;;20.90;100.00
32873;BME280;19224;52.462;16.898;2022-10-16T11:18:15;100412.88;;;20.98;100.00
32873;BME280;19224;52.462;16.898;2022-10-16T11:21:00;100418.12;;;21.01;100.00
32873;BME280;19224;52.462;16.898;2022-10-16T11:23:33;100405.89;;;21.05;100.00
32873;BME280;19224;52.462;16.898;2022-10-16T11:26:05;100405.55;;;20.98;100.00
32873;BME280;19224;52.462;16.898;2022-10-16T11:28:44;100401.83;;;20.94;100.00
32873;BME280;19224;52.462;16.898;2022-10-16T11:31:32;100405.52;;;21.04;100.00
32873;BME280;19224;52.462;16.898;2022-10-16T11:36:50;100393.39;;;21.17;100.00
32873;BME280;19224;52.462;16.898;2022-10-16T11:39:27;100398.01;;;21.32;100.00
32873;BME280;19224;52.462;16.898;2022-10-16T11:42:09;100395.56;;;21.44;99.99
32873;BME280;19224;52.462;16.898;2022-10-16T11:48:04;100397.45;;;21.64;98.20
32873;BME280;19224;52.462;16.898;2022-10-16T11:50:57;100415.03;;;21.67;98.35
32873;BME280;19224;52.462;16.898;2022-10-16T11:54:01;100413.22;;;21.51;97.31
32873;BME280;19224;52.462;16.898;2022-10-16T11:56:33;100409.55;;;21.41;96.84
32873;BME280;19224;52.462;16.898;2022-10-16T11:59:25;100410.53;;;21.25;97.61
32873;BME280;19224;52.462;16.898;2022-10-16T12:05:45;100425.23;;;21.24;97.07
32873;BME280;19224;52.462;16.898;2022-10-16T12:08:13;100428.31;;;21.30;96.96
32873;BME280;19224;52.462;16.898;2022-10-16T12:10:46;100420.36;;;21.27;96.81
32873;BME280;19224;52.462;16.898;2022-10-16T12:16:21;100416.49;;;21.24;97.05
32873;BME280;19224;52.462;16.898;2022-10-16T12:19:16;100421.24;;;21.22;97.74
32873;BME280;19224;52.462;16.898;2022-10-16T12:21:46;100427.15;;;21.33;97.60
32873;BME280;19224;52.462;16.898;2022-10-16T12:24:38;100414.24;;;21.29;97.72
32873;BME280;19224;52.462;16.898;2022-10-16T12:27:32;100422.24;;;21.42;97.54
32873;BME280;19224;52.462;16.898;2022-10-16T12:30:06;100415.88;;;21.47;97.33
32873;BME280;19224;52.462;16.898;2022-10-16T12:32:43;100429.86;;;21.38;97.13
32873;BME280;19224;52.462;16.898;2022-10-16T12:35:28;100431.38;;;21.37;97.33
32873;BME280;19224;52.462;16.898;2022-10-16T12:38:03;100437.34;;;21.36;97.20
32873;BME280;19224;52.462;16.898;2022-10-16T12:40:32;100432.52;;;21.34;97.36
32873;BME280;19224;52.462;16.898;2022-10-16T12:48:52;100445.25;;;21.04;97.00
32873;BME280;19224;52.462;16.898;2022-10-16T12:54:12;100432.38;;;21.10;95.77
32873;BME280;19224;52.462;16.898;2022-10-16T13:00:28;100430.37;;;21.38;94.57
32873;BME280;19224;52.462;16.898;2022-10-16T13:03:11;100439.35;;;21.55;90.79
32873;BME280;19224;52.462;16.898;2022-10-16T13:09:02;100437.70;;;21.69;90.97
32873;BME280;19224;52.462;16.898;2022-10-16T13:12:03;100450.13;;;21.88;90.70
32873;BME280;19224;52.462;16.898;2022-10-16T13:17:52;100454.19;;;21.58;90.85
32873;BME280;19224;52.462;16.898;2022-10-16T13:26:46;100450.95;;;21.12;93.25
32873;BME280;19224;52.462;16.898;2022-10-16T13:29:16;100451.38;;;21.22;92.73
32873;BME280;19224;52.462;16.898;2022-10-16T13:31:57;100453.82;;;21.31;92.51
32873;BME280;19224;52.462;16.898;2022-10-16T13:34:29;100460.28;;;21.35;91.76
32873;BME280;19224;52.462;16.898;2022-10-16T13:36:59;100455.47;;;21.28;92.17
32873;BME280;19224;52.462;16.898;2022-10-16T13:39:33;100464.11;;;21.18;92.77
32873;BME280;19224;52.462;16.898;2022-10-16T13:42:30;100465.02;;;21.13;93.95
32873;BME280;19224;52.462;16.898;2022-10-16T13:45:17;100474.92;;;21.25;93.78
32873;BME280;19224;52.462;16.898;2022-10-16T13:47:40;100472.25;;;21.55;93.04
32873;BME280;19224;52.462;16.898;2022-10-16T13:50:19;100485.20;;;21.64;92.26
32873;BME280;19224;52.462;16.898;2022-10-16T13:52:48;100489.47;;;21.57;93.21
32873;BME280;19224;52.462;16.898;2022-10-16T13:55:19;100485.08;;;21.60;93.23
32873;BME280;19224;52.462;16.898;2022-10-16T13:57:49;100492.75;;;21.71;92.26
32873;BME280;19224;52.462;16.898;2022-10-16T14:00:28;100485.34;;;21.98;91.36
32873;BME280;19224;52.462;16.898;2022-10-16T14:03:06;100492.20;;;21.98;90.17
32873;BME280;19224;52.462;16.898;2022-10-16T14:05:36;100500.51;;;21.87;90.22
32873;BME280;19224;52.462;16.898;2022-10-16T14:08:10;100502.80;;;21.82;90.99
32873;BME280;19224;52.462;16.898;2022-10-16T14:10:41;100511.45;;;21.72;89.22
32873;BME280;19224;52.462;16.898;2022-10-16T14:13:16;100517.03;;;21.50;89.81
32873;BME280;19224;52.462;16.898;2022-10-16T14:15:49;100521.83;;;21.37;90.52
32873;BME280;19224;52.462;16.898;2022-10-16T14:18:23;100518.91;;;21.18;91.68
32873;BME280;19224;52.462;16.898;2022-10-16T14:21:01;100518.91;;;21.18;91.97
32873;BME280;19224;52.462;16.898;2022-10-16T14:23:35;100521.30;;;21.11;92.79
32873;BME280;19224;52.462;16.898;2022-10-16T14:26:14;100514.45;;;21.11;93.07
32873;BME280;19224;52.462;16.898;2022-10-16T14:28:46;100512.22;;;21.11;92.95
32873;BME280;19224;52.462;16.898;2022-10-16T14:31:31;100519.07;;;21.11;92.35
32873;BME280;19224;52.462;16.898;2022-10-16T14:34:04;100516.45;;;21.09;92.49
32873;BME280;19224;52.462;16.898;2022-10-16T14:36:35;100520.67;;;21.08;92.70
32873;BME280;19224;52.462;16.898;2022-10-16T14:39:18;100536.11;;;21.09;92.76
32873;BME280;19224;52.462;16.898;2022-10-16T14:41:54;100530.78;;;21.07;92.91
32873;BME280;19224;52.462;16.898;2022-10-16T14:44:30;100544.84;;;21.08;92.36
32873;BME280;19224;52.462;16.898;2022-10-16T14:47:13;100534.27;;;21.04;92.07